Time;durP1;ratioP1;P1;durP2;ratioP2;P2;SDS_P1;SDS_P2;PMS_P1;PMS_P2;Temp;Humidity;BMP_temperature;BMP_pressure;BME280_temperature;BME280_humidity;BME280_pressure;Samples;Min_cycle;Max_cycle;Signal;HPM_P1;HPM_P2
2022/01/14 00:00:52;;;;;;;16.93;16.03;;;;;;;-141.02;100.00;84437.53;5133367;27;20242;-73
2022/01/14 00:03:19;;;;;;;17.17;16.27;;;;;;;-141.02;100.00;84445.31;5133764;27;20192;-74
2022/01/14 00:05:48;;;;;;;18.40;17.40;;;;;;;-141.02;100.00;84449.19;5133043;27;20288;-73
2022/01/14 00:08:15;;;;;;;19.23;18.13;;;;;;;-141.02;100.00;84445.31;5133041;28;20249;-73
2022/01/14 00:10:48;;;;;;;16.93;16.03;;;;;;;-141.02;100.00;84437.53;5133326;27;20728;-74
2022/01/14 00:13:38;;;;;;;17.30;16.40;;;;;;;-141.02;100.00;84414.22;5133000;28;20192;-73
2022/01/14 00:16:02;;;;;;;17.30;16.00;;;;;;;-141.02;100.00;84418.13;5132850;28;20228;-73
2022/01/14 00:18:29;;;;;;;16.90;16.00;;;;;;;-141.02;100.00;84396.72;5132757;27;20224;-73
2022/01/14 00:20:59;;;;;;;20.83;18.90;;;;;;;-141.02;100.00;84074.16;5133205;27;20197;-73
2022/01/14 00:23:31;;;;;;;18.43;17.33;;;;;;;-141.02;100.00;84394.78;5133503;28;20207;-73
2022/01/14 00:31:48;;;;;;;21.20;19.93;;;;;;;-141.02;100.00;84423.94;5133455;28;20242;-73
2022/01/14 00:34:17;;;;;;;21.27;19.43;;;;;;;-141.02;100.00;84425.88;5133100;28;20588;-73
2022/01/14 00:36:46;;;;;;;20.83;19.73;;;;;;;-141.02;100.00;84414.22;5133064;28;20192;-73
2022/01/14 00:39:14;;;;;;;21.10;19.57;;;;;;;-141.02;100.00;84449.19;5133026;28;20299;-73
2022/01/14 00:41:42;;;;;;;16.63;15.73;;;;;;;-141.02;100.00;84394.78;5132993;28;20235;-73
2022/01/14 00:44:14;;;;;;;18.13;17.23;;;;;;;-141.02;100.00;84429.78;5132723;28;20811;-74
2022/01/14 00:46:42;;;;;;;18.90;17.90;;;;;;;-141.02;100.00;84449.19;5132724;27;20658;-73
2022/01/14 00:49:10;;;;;;;20.37;19.03;;;;;;;-141.02;100.00;84414.22;5132746;28;20257;-73
2022/01/14 00:51:38;;;;;;;21.70;20.47;;;;;;;-141.02;100.00;84449.19;5132564;27;20308;-73
2022/01/14 00:54:07;;;;;;;23.37;21.83;;;;;;;-141.02;100.00;84474.47;5132604;27;20226;-73
2022/01/14 00:56:46;;;;;;;21.67;20.33;;;;;;;-141.02;100.00;84204.34;5132821;28;20551;-73
2022/01/14 00:59:16;;;;;;;25.60;21.93;;;;;;;-141.02;100.00;84449.19;5133234;28;20261;-73
2022/01/14 01:01:44;;;;;;;22.47;21.17;;;;;;;-141.02;100.00;84468.63;5132749;28;20200;-73
2022/01/14 01:04:12;;;;;;;19.87;18.77;;;;;;;-141.02;100.00;84484.19;5132527;28;20196;-73
2022/01/14 01:06:40;;;;;;;20.40;19.23;;;;;;;-141.02;100.00;84476.41;5132535;27;20193;-73
2022/01/14 01:09:11;;;;;;;17.90;16.90;;;;;;;-141.02;100.00;84449.19;5132492;27;20192;-73
2022/01/14 01:11:43;;;;;;;17.57;16.67;;;;;;;-141.02;100.00;84375.34;5132723;28;20307;-73
2022/01/14 01:14:14;;;;;;;20.90;19.70;;;;;;;-141.02;100.00;84388.97;5133330;27;20188;-73
2022/01/14 01:16:42;;;;;;;19.23;18.23;;;;;;;-141.02;100.00;84447.25;5136279;27;20221;-73
2022/01/14 01:19:10;;;;;;;19.67;18.57;;;;;;;-141.02;100.00;84423.94;5136263;27;20219;-73
2022/01/14 01:21:37;;;;;;;21.63;20.23;;;;;;;-141.02;100.00;84408.41;5136011;27;20231;-73
2022/01/14 01:24:04;;;;;;;20.17;18.90;;;;;;;-141.02;100.00;84418.13;5136310;27;20200;-73
2022/01/14 01:26:36;;;;;;;17.33;16.43;;;;;;;-141.02;100.00;84402.56;5136292;27;20197;-73
2022/01/14 01:29:27;;;;;;;18.07;17.17;;;;;;;-141.02;100.00;84423.94;5135902;27;20188;-73
2022/01/14 01:31:52;;;;;;;17.83;16.93;;;;;;;-141.02;100.00;84367.59;5135690;27;20223;-73
2022/01/14 01:34:23;;;;;;;16.83;16.03;;;;;;;-141.02;100.00;84344.25;5135792;27;20232;-73
2022/01/14 01:36:52;;;;;;;18.40;17.40;;;;;;;-141.02;100.00;84394.78;5136601;27;20617;-73
2022/01/14 01:39:22;;;;;;;17.67;16.77;;;;;;;-141.02;100.00;84301.50;5135937;27;20227;-73
2022/01/14 01:41:52;;;;;;;24.70;23.13;;;;;;;-141.02;100.00;84192.69;5135995;27;20200;-73
2022/01/14 01:44:21;;;;;;;17.73;16.90;;;;;;;-141.02;100.00;84379.25;5135581;27;20222;-73
2022/01/14 01:46:48;;;;;;;18.30;17.40;;;;;;;-141.02;100.00;84377.31;5135548;27;20192;-74
2022/01/14 01:49:18;;;;;;;17.87;16.97;;;;;;;-141.02;100.00;84363.69;5135925;27;20223;-75
2022/01/14 01:51:47;;;;;;;16.57;15.77;;;;;;;-141.02;100.00;84414.22;5135396;27;20224;-75
2022/01/14 01:54:15;;;;;;;16.73;15.93;;;;;;;-141.02;100.00;84320.94;5135778;27;20674;-74
2022/01/14 01:56:42;;;;;;;16.97;16.17;;;;;;;-141.02;100.00;84398.69;5135423;27;20192;-72
2022/01/14 01:59:11;;;;;;;17.60;16.80;;;;;;;-141.02;100.00;84394.78;5135385;27;20200;-75
2022/01/14 02:01:40;;;;;;;19.03;18.23;;;;;;;-141.02;100.00;84377.31;5135653;27;20189;-75
2022/01/14 02:04:07;;;;;;;20.50;19.60;;;;;;;-141.02;100.00;84379.25;5135269;27;20634;-75
2022/01/14 02:06:37;;;;;;;19.73;18.83;;;;;;;-141.02;100.00;84340.38;5135346;27;20192;-75
2022/01/14 02:09:05;;;;;;;18.70;17.80;;;;;;;-141.02;100.00;84357.88;5135456;27;20196;-75
2022/01/14 02:11:32;;;;;;;18.47;17.57;;;;;;;-141.02;100.00;84363.69;5135334;27;20316;-74
2022/01/14 02:14:01;;;;;;;18.13;17.23;;;;;;;-141.02;100.00;84377.31;5135380;27;20196;-74
2022/01/14 02:16:36;;;;;;;18.63;17.73;;;;;;;-141.02;100.00;84398.69;5134802;27;20235;-74
2022/01/14 02:19:23;;;;;;;18.13;17.33;;;;;;;-141.02;100.00;84363.69;5135298;27;20196;-74
2022/01/14 02:22:10;;;;;;;18.73;17.83;;;;;;;-141.02;100.00;84402.56;5135329;27;20195;-75
2022/01/14 02:24:58;;;;;;;18.60;17.70;;;;;;;-141.02;100.00;84359.81;5135156;27;20188;-74
2022/01/14 02:27:25;;;;;;;18.23;17.33;;;;;;;-141.02;100.00;84369.53;5135163;27;20181;-74
2022/01/14 02:29:52;;;;;;;18.13;17.13;;;;;;;-141.02;100.00;84390.91;5134787;27;20632;-74
2022/01/14 02:32:19;;;;;;;19.33;18.23;;;;;;;-141.02;100.00;84410.34;5134888;27;20573;-74
2022/01/14 02:34:46;;;;;;;22.33;20.90;;;;;;;-141.02;100.00;84410.34;5134674;27;20189;-74
2022/01/14 02:37:19;;;;;;;37.40;34.40;;;;;;;-141.02;100.00;84420.06;5134570;27;20192;-73
2022/01/14 02:39:47;;;;;;;17.70;16.80;;;;;;;-141.02;100.00;84433.66;5134498;27;20191;-74
2022/01/14 02:42:15;;;;;;;18.07;17.07;;;;;;;-141.02;100.00;84425.88;5135589;27;20257;-72
2022/01/14 02:44:42;;;;;;;19.00;17.93;;;;;;;-141.02;100.00;84363.69;5134682;27;20188;-72
2022/01/14 02:47:09;;;;;;;20.17;18.70;;;;;;;-141.02;100.00;84418.13;5134308;27;20279;-72
2022/01/14 02:49:37;;;;;;;20.00;18.80;;;;;;;-141.02;100.00;84387.03;5134607;27;20272;-72
2022/01/14 02:52:08;;;;;;;19.57;18.47;;;;;;;-141.02;100.00;84429.78;5134490;27;20262;-72
2022/01/14 02:55:01;;;;;;;22.37;21.07;;;;;;;-141.02;100.00;84388.97;5134203;27;20188;-72
2022/01/14 02:57:30;;;;;;;25.77;24.37;;;;;;;-141.02;100.00;84451.16;5134128;27;20196;-72
2022/01/14 02:59:58;;;;;;;23.57;22.27;;;;;;;-141.02;100.00;84142.16;5134494;27;20578;-72
2022/01/14 03:02:27;;;;;;;22.33;21.13;;;;;;;-141.02;100.00;83874.03;5134425;27;20230;-72
2022/01/14 03:04:55;;;;;;;24.53;23.23;;;;;;;-141.02;100.00;84375.34;5134333;27;20666;-72
2022/01/14 03:07:22;;;;;;;26.67;24.73;;;;;;;-141.02;100.00;84398.69;5134279;27;20242;-72
2022/01/14 03:09:51;;;;;;;26.87;24.87;;;;;;;-141.02;100.00;84388.97;5134216;27;20237;-72
2022/01/14 03:12:18;;;;;;;21.30;20.10;;;;;;;-141.02;100.00;84402.56;5134616;27;20311;-72
2022/01/14 03:14:45;;;;;;;22.60;21.30;;;;;;;-141.02;100.00;84392.84;5133853;27;20203;-72
2022/01/14 03:17:12;;;;;;;20.07;19.07;;;;;;;-141.02;100.00;84390.91;5133507;27;20234;-72
2022/01/14 03:19:39;;;;;;;20.37;19.47;;;;;;;-141.02;100.00;84383.13;5134012;27;20219;-72
2022/01/14 03:22:18;;;;;;;23.40;22.20;;;;;;;-141.02;100.00;84359.81;5133943;27;20188;-72
2022/01/14 03:27:31;;;;;;;23.80;22.70;;;;;;;-141.02;100.00;84330.66;5133776;27;20206;-72
2022/01/14 03:29:58;;;;;;;23.13;22.03;;;;;;;-141.02;100.00;84363.69;5133942;27;20196;-72
2022/01/14 03:32:25;;;;;;;22.20;21.20;;;;;;;-141.02;100.00;84328.72;5133445;27;20645;-72
2022/01/14 03:34:52;;;;;;;21.47;20.57;;;;;;;-141.02;100.00;84359.81;5133809;27;20240;-72
2022/01/14 03:37:19;;;;;;;21.73;20.73;;;;;;;-141.02;100.00;84357.88;5133303;27;20279;-72
2022/01/14 03:39:46;;;;;;;25.83;24.43;;;;;;;-141.02;100.00;84367.59;5133738;27;20642;-72
2022/01/14 03:42:13;;;;;;;22.97;21.87;;;;;;;-141.02;100.00;84328.72;5133329;27;20192;-72
2022/01/14 03:44:42;;;;;;;23.77;22.57;;;;;;;-141.02;100.00;84406.44;5133331;27;20552;-73
2022/01/14 03:47:09;;;;;;;21.43;20.23;;;;;;;-141.02;100.00;84456.97;5133292;27;20249;-74
2022/01/14 03:49:36;;;;;;;24.07;22.63;;;;;;;-141.02;100.00;84385.06;5133675;27;20256;-74
2022/01/14 03:52:03;;;;;;;21.73;20.63;;;;;;;-141.02;100.00;84394.78;5133515;27;20571;-74
2022/01/14 03:54:30;;;;;;;22.83;21.73;;;;;;;-141.02;100.00;84398.69;5133452;27;20629;-74
2022/01/14 03:56:57;;;;;;;25.97;24.37;;;;;;;-141.02;100.00;84429.78;5133191;27;20197;-74
2022/01/14 03:59:24;;;;;;;23.40;22.27;;;;;;;-141.02;100.00;84396.72;5133470;27;20586;-72
2022/01/14 04:01:53;;;;;;;44.30;41.87;;;;;;;-141.02;100.00;84169.38;5133073;27;20197;-72
2022/01/14 04:04:20;;;;;;;24.50;22.83;;;;;;;-141.02;100.00;84427.81;5133354;27;20241;-72
2022/01/14 04:06:47;;;;;;;24.40;22.97;;;;;;;-141.02;100.00;84435.59;5133832;27;20197;-73
2022/01/14 04:09:14;;;;;;;28.07;25.57;;;;;;;-141.02;100.00;84441.44;5133311;28;20642;-74
2022/01/14 04:11:44;;;;;;;22.43;21.43;;;;;;;-141.02;100.00;84404.50;5133237;27;20228;-74
2022/01/14 04:15:36;;;;;;;23.60;22.40;;;;;;;-141.02;100.00;84445.31;5133040;27;20548;-72
2022/01/14 04:17:11;;;;;;;24.77;23.27;;;;;;;-141.02;100.00;84418.13;5132453;28;20224;-73
2022/01/14 04:19:39;;;;;;;21.90;20.90;;;;;;;-141.02;100.00;84412.28;5133210;28;20275;-74
2022/01/14 04:22:06;;;;;;;23.00;21.90;;;;;;;-141.02;100.00;84476.41;5133188;27;20654;-74
2022/01/14 04:24:33;;;;;;;24.20;23.07;;;;;;;-141.02;100.00;84464.75;5132881;28;20637;-73
2022/01/14 04:27:00;;;;;;;25.03;23.63;;;;;;;-141.02;100.00;84451.16;5133123;28;20200;-74
2022/01/14 04:29:27;;;;;;;26.17;24.63;;;;;;;-141.02;100.00;84441.44;5132894;28;20279;-74
2022/01/14 04:31:54;;;;;;;26.60;24.70;;;;;;;-141.02;100.00;84497.78;5133098;27;20770;-74
2022/01/14 04:34:22;;;;;;;27.73;25.70;;;;;;;-141.02;100.00;84523.06;5133022;28;20249;-74
2022/01/14 04:36:49;;;;;;;21.83;20.53;;;;;;;-141.02;100.00;84521.09;5133113;27;20197;-74
2022/01/14 04:39:16;;;;;;;29.50;27.43;;;;;;;-141.02;100.00;84530.81;5132961;27;20227;-74
2022/01/14 04:41:43;;;;;;;23.63;22.43;;;;;;;-141.02;100.00;84484.19;5133029;27;20232;-74
2022/01/14 04:44:10;;;;;;;22.53;21.43;;;;;;;-141.02;100.00;84484.19;5132981;28;20196;-74
2022/01/14 04:47:01;;;;;;;23.43;22.33;;;;;;;-141.02;100.00;84433.66;5132610;28;20677;-74
2022/01/14 04:49:29;;;;;;;22.43;21.33;;;;;;;-141.02;100.00;84429.78;5134466;27;20584;-74
2022/01/14 04:51:57;;;;;;;25.53;24.10;;;;;;;-141.02;100.00;84429.78;5136878;27;20228;-74
2022/01/14 04:54:24;;;;;;;23.03;21.93;;;;;;;-141.02;100.00;84495.84;5136830;27;20257;-74
2022/01/14 04:56:52;;;;;;;27.33;25.93;;;;;;;-141.02;100.00;84484.19;5136554;27;20195;-74
2022/01/14 04:59:19;;;;;;;26.97;24.93;;;;;;;-141.02;100.00;84445.31;5136894;27;20202;-74
2022/01/14 05:01:46;;;;;;;26.57;25.07;;;;;;;-141.02;100.00;84476.41;5136765;27;20317;-74
2022/01/14 05:04:13;;;;;;;21.63;20.63;;;;;;;-141.02;100.00;84451.16;5136403;27;20232;-74
2022/01/14 05:06:46;;;;;;;22.30;21.20;;;;;;;-141.02;100.00;84478.34;5136337;27;20192;-74
2022/01/14 05:09:22;;;;;;;22.40;21.30;;;;;;;-141.02;100.00;84445.31;5136643;27;20237;-74
2022/01/14 05:11:54;;;;;;;25.17;23.87;;;;;;;-141.02;100.00;84456.97;5136449;27;20208;-74
2022/01/14 05:14:21;;;;;;;23.33;22.23;;;;;;;-141.02;100.00;84262.66;5136586;27;20185;-74
2022/01/14 05:16:48;;;;;;;23.63;22.53;;;;;;;-141.02;100.00;84462.81;5136149;27;20284;-74
2022/01/14 05:19:15;;;;;;;23.30;22.20;;;;;;;-141.02;100.00;84478.34;5136448;27;20192;-74
2022/01/14 05:21:45;;;;;;;24.30;23.10;;;;;;;-141.02;100.00;84387.03;5136371;27;20200;-74
2022/01/14 05:24:12;;;;;;;23.70;22.40;;;;;;;-141.02;100.00;84464.75;5136266;27;20280;-74
2022/01/14 05:26:39;;;;;;;22.37;21.37;;;;;;;-141.02;100.00;84408.41;5135990;27;20284;-74
2022/01/14 05:29:06;;;;;;;24.13;23.03;;;;;;;-141.02;100.00;84379.25;5135991;27;20193;-74
2022/01/14 05:31:43;;;;;;;23.13;21.87;;;;;;;-141.02;100.00;84445.31;5136167;27;20232;-74
2022/01/14 05:34:11;;;;;;;22.57;21.57;;;;;;;-141.02;100.00;84439.50;5136098;27;20300;-73
2022/01/14 05:36:38;;;;;;;24.17;22.97;;;;;;;-141.02;100.00;84282.09;5135893;27;20283;-74
2022/01/14 05:39:07;;;;;;;24.57;23.00;;;;;;;-141.02;100.00;84427.81;5136087;27;20582;-74
2022/01/14 05:41:34;;;;;;;22.07;21.07;;;;;;;-141.02;100.00;84099.41;5135993;27;20249;-74
2022/01/14 05:44:02;;;;;;;20.90;19.93;;;;;;;-141.02;100.00;84352.03;5135971;27;20291;-73
2022/01/14 05:46:29;;;;;;;21.57;20.57;;;;;;;-141.02;100.00;84390.91;5135580;27;20193;-74
2022/01/14 05:48:56;;;;;;;21.50;20.60;;;;;;;-141.02;100.00;84307.34;5135542;27;20253;-74
2022/01/14 05:51:23;;;;;;;24.13;22.93;;;;;;;-141.02;100.00;84336.50;5136200;27;20593;-74
2022/01/14 05:53:50;;;;;;;20.50;19.60;;;;;;;-141.02;100.00;85382.13;5135791;27;20249;-74
2022/01/14 05:56:19;;;;;;;19.37;18.57;;;;;;;-141.02;100.00;84363.69;5135703;27;20227;-74
2022/01/14 05:58:46;;;;;;;19.77;18.97;;;;;;;-141.02;100.00;84324.84;5135665;27;20701;-72
2022/01/14 06:01:13;;;;;;;22.27;21.07;;;;;;;-141.02;100.00;84355.94;5135020;27;20630;-72
2022/01/14 06:03:40;;;;;;;25.10;23.00;;;;;;;-141.02;100.00;84406.44;5135570;27;20192;-72
2022/01/14 06:06:07;;;;;;;24.30;23.00;;;;;;;-141.02;100.00;84433.66;5135195;27;20555;-72
2022/01/14 06:08:34;;;;;;;23.13;22.13;;;;;;;-141.02;100.00;84406.44;5135511;27;20192;-73
2022/01/14 06:11:01;;;;;;;24.60;23.23;;;;;;;-141.02;100.00;84410.34;5135453;27;20224;-74
2022/01/14 06:13:30;;;;;;;25.70;23.83;;;;;;;-141.02;100.00;84433.66;5135054;27;20224;-73
2022/01/14 06:15:57;;;;;;;21.57;20.57;;;;;;;-141.02;100.00;84472.53;5134989;27;20220;-74
2022/01/14 06:18:24;;;;;;;22.63;21.37;;;;;;;-141.02;100.00;84474.47;5134968;27;20315;-74
2022/01/14 06:20:51;;;;;;;23.17;21.63;;;;;;;-141.02;100.00;84503.63;5135192;27;20280;-74
2022/01/14 06:23:18;;;;;;;20.17;19.27;;;;;;;-141.02;100.00;84519.16;5134871;27;20648;-74
2022/01/14 06:25:45;;;;;;;25.80;24.03;;;;;;;-141.02;100.00;84523.06;5134805;27;20673;-73
2022/01/14 06:28:12;;;;;;;22.97;21.67;;;;;;;-141.02;100.00;84517.22;5134792;27;20192;-74
2022/01/14 06:30:40;;;;;;;21.97;20.87;;;;;;;-141.02;100.00;83477.66;5134780;27;20727;-74
2022/01/14 06:33:08;;;;;;;24.70;23.20;;;;;;;-141.02;100.00;84591.06;5134650;27;20224;-73
2022/01/14 06:35:35;;;;;;;23.90;22.60;;;;;;;-141.02;100.00;84480.31;5134949;27;20252;-74
2022/01/14 06:38:02;;;;;;;20.43;19.43;;;;;;;-141.02;100.00;84589.13;5134969;27;20260;-74
2022/01/14 06:40:30;;;;;;;20.00;19.07;;;;;;;-141.02;100.00;84559.97;5134898;27;20200;-74
2022/01/14 06:42:57;;;;;;;19.20;18.30;;;;;;;-141.02;100.00;84569.69;5134831;27;20189;-74
2022/01/14 06:45:25;;;;;;;18.43;17.63;;;;;;;-141.02;100.00;84594.97;5134711;27;20224;-74
2022/01/14 06:47:53;;;;;;;19.97;19.07;;;;;;;-141.02;100.00;84624.09;5134784;27;20316;-74
2022/01/14 06:50:21;;;;;;;18.53;17.53;;;;;;;-141.02;100.00;84604.69;5134627;27;20253;-74
2022/01/14 06:52:48;;;;;;;19.73;18.63;;;;;;;-141.02;100.00;84626.06;5134249;27;20268;-74
2022/01/14 06:55:15;;;;;;;23.37;22.17;;;;;;;-141.02;100.00;84558.03;5134578;27;20227;-74
2022/01/14 06:57:42;;;;;;;21.53;20.53;;;;;;;-141.02;100.00;84573.59;5134494;27;20200;-74
2022/01/14 07:00:12;;;;;;;23.20;21.80;;;;;;;-141.02;100.00;84635.78;5134492;27;20189;-74
2022/01/14 07:02:40;;;;;;;21.57;20.37;;;;;;;-141.02;100.00;84596.91;5133195;27;20279;-74
2022/01/14 07:05:10;;;;;;;24.20;23.00;;;;;;;-141.02;100.00;84647.44;5134395;27;20192;-74
2022/01/14 07:07:39;;;;;;;29.77;27.97;;;;;;;-141.02;100.00;84641.59;5133987;27;20646;-74
2022/01/14 07:10:08;;;;;;;29.23;27.10;;;;;;;-141.02;100.00;84655.19;5134269;27;20276;-74
2022/01/14 07:12:37;;;;;;;30.63;28.03;;;;;;;-141.02;100.00;84649.38;5133077;27;20579;-74
2022/01/14 07:15:06;;;;;;;26.83;25.23;;;;;;;-141.02;100.00;84598.84;5134144;27;20250;-74
2022/01/14 07:17:33;;;;;;;25.67;24.47;;;;;;;-141.02;100.00;84338.44;5133643;27;20588;-74
2022/01/14 07:20:06;;;;;;;28.83;27.10;;;;;;;-141.02;100.00;84645.50;5133768;27;20288;-75
2022/01/14 07:22:35;;;;;;;19.97;18.97;;;;;;;-141.02;100.00;84633.81;5133775;27;20694;-75
2022/01/14 07:25:02;;;;;;;26.60;24.23;;;;;;;-141.02;100.00;84600.78;5133967;27;20797;-74
2022/01/14 07:27:29;;;;;;;21.90;20.43;;;;;;;-141.02;100.00;84620.22;5133981;27;20189;-74
2022/01/14 07:29:56;;;;;;;19.57;18.43;;;;;;;-141.02;100.00;84657.16;5133627;27;20244;-74
2022/01/14 07:32:24;;;;;;;27.77;25.07;;;;;;;-141.02;100.00;84661.03;5133494;27;20660;-74
2022/01/14 07:34:51;;;;;;;19.20;17.60;;;;;;;-141.02;100.00;84668.81;5133897;27;20714;-74
2022/01/14 07:37:20;;;;;;;18.43;17.40;;;;;;;-141.02;100.00;84668.81;5133761;27;20232;-74
2022/01/14 07:39:49;;;;;;;18.47;17.67;;;;;;;-141.02;100.00;84666.88;5133428;27;20726;-74
2022/01/14 07:42:16;;;;;;;19.50;18.53;;;;;;;-141.02;100.00;84694.06;5133681;27;20222;-75
2022/01/14 07:44:43;;;;;;;21.73;20.20;;;;;;;-141.02;100.00;84216.00;5133565;27;20204;-74
2022/01/14 07:47:10;;;;;;;24.20;22.77;;;;;;;-141.02;100.00;84709.63;5133368;27;20725;-74
2022/01/14 07:49:37;;;;;;;21.33;20.33;;;;;;;-141.02;100.00;84684.34;5133231;27;20591;-74
2022/01/14 07:52:05;;;;;;;23.20;21.87;;;;;;;-141.02;100.00;84511.41;5133574;27;20220;-75
2022/01/14 07:54:32;;;;;;;24.93;23.30;;;;;;;-141.02;100.00;84682.41;5133193;27;20283;-74
2022/01/14 07:57:02;;;;;;;22.93;21.13;;;;;;;-141.02;100.00;84709.63;5133528;27;20192;-74
2022/01/14 07:59:32;;;;;;;20.23;19.43;;;;;;;-141.02;100.00;84732.94;5133123;27;20650;-74
2022/01/14 08:02:00;;;;;;;24.70;23.20;;;;;;;-141.02;100.00;84738.78;5133454;27;20257;-75
2022/01/14 08:04:29;;;;;;;21.90;20.63;;;;;;;-141.02;100.00;84577.47;5133411;27;20192;-74
2022/01/14 08:07:08;;;;;;;26.23;24.30;;;;;;;-141.02;100.00;84717.41;5132976;27;20567;-74
2022/01/14 08:09:37;;;;;;;20.63;19.40;;;;;;;-141.02;100.00;84659.09;5133055;27;20199;-75
2022/01/14 08:12:06;;;;;;;23.27;21.70;;;;;;;-141.02;100.00;84729.06;5133205;28;20201;-74
2022/01/14 08:14:33;;;;;;;25.43;24.03;;;;;;;-141.02;100.00;84694.06;5132982;28;20370;-74
2022/01/14 08:17:00;;;;;;;23.67;22.37;;;;;;;-141.02;100.00;84729.06;5132879;27;20281;-75
2022/01/14 08:19:32;;;;;;;27.10;25.60;;;;;;;-141.02;100.00;84558.03;5132942;28;20644;-74
2022/01/14 08:22:01;;;;;;;27.20;25.60;;;;;;;-141.02;100.00;84744.59;5132901;28;20642;-74
2022/01/14 08:24:28;;;;;;;25.57;23.93;;;;;;;-141.02;100.00;84491.97;5136535;27;20198;-75
2022/01/14 08:26:56;;;;;;;22.93;21.73;;;;;;;-141.02;100.00;84752.38;5137491;27;20236;-75
2022/01/14 08:29:27;;;;;;;27.00;25.30;;;;;;;-141.02;100.00;84787.38;5137477;27;20197;-75
2022/01/14 08:31:54;;;;;;;24.73;23.33;;;;;;;-141.02;100.00;84752.38;5137380;27;20192;-75
2022/01/14 08:34:21;;;;;;;29.67;27.47;;;;;;;-141.02;100.00;84746.56;5137250;27;20233;-75
2022/01/14 08:36:48;;;;;;;24.43;23.20;;;;;;;-141.02;100.00;84355.94;5136955;27;20732;-75
2022/01/14 08:39:15;;;;;;;24.17;22.87;;;;;;;-141.02;100.00;84756.25;5136876;27;20227;-75
2022/01/14 08:41:42;;;;;;;21.93;20.83;;;;;;;-141.02;100.00;84678.53;5137888;27;20689;-75
2022/01/14 08:44:09;;;;;;;22.87;21.87;;;;;;;-141.02;100.00;84799.03;5136885;27;20204;-75
2022/01/14 08:46:38;;;;;;;24.50;23.10;;;;;;;-141.02;100.00;84779.59;5136786;27;20643;-75
2022/01/14 08:49:05;;;;;;;26.67;25.47;;;;;;;-141.02;100.00;84783.47;5136757;27;20280;-75
2022/01/14 08:51:32;;;;;;;26.47;24.70;;;;;;;-141.02;100.00;84795.13;5136969;27;20196;-75
2022/01/14 08:54:02;;;;;;;26.20;24.73;;;;;;;-141.02;100.00;84791.25;5136864;27;20259;-74
2022/01/14 08:56:30;;;;;;;28.23;26.53;;;;;;;-141.02;100.00;84795.13;5136483;27;20673;-75
2022/01/14 08:58:57;;;;;;;24.03;22.87;;;;;;;-141.02;100.00;84789.31;5136854;27;20198;-74
2022/01/14 09:01:25;;;;;;;23.53;22.40;;;;;;;-141.02;100.00;84783.47;5136745;27;20685;-76
2022/01/14 09:03:53;;;;;;;23.57;22.37;;;;;;;-141.02;100.00;84795.13;5136786;27;20246;-74
2022/01/14 09:06:20;;;;;;;24.47;23.37;;;;;;;-141.02;100.00;84804.84;5136374;27;20196;-75
2022/01/14 09:08:48;;;;;;;23.20;22.20;;;;;;;-141.02;100.00;84820.41;5136330;27;20228;-75
2022/01/14 09:11:15;;;;;;;26.53;25.23;;;;;;;-141.02;100.00;84787.38;5136581;27;20250;-76
2022/01/14 09:13:42;;;;;;;23.03;22.03;;;;;;;-141.02;100.00;84822.34;5136137;27;20220;-76
2022/01/14 09:16:09;;;;;;;21.97;20.70;;;;;;;-141.02;100.00;84787.38;5136038;27;20196;-76
2022/01/14 09:18:36;;;;;;;21.80;20.80;;;;;;;-141.02;100.00;84812.63;5136242;27;20197;-76
2022/01/14 09:21:05;;;;;;;24.40;23.30;;;;;;;-141.02;100.00;84822.34;5136382;27;20188;-75
2022/01/14 09:23:33;;;;;;;21.37;20.47;;;;;;;-141.02;100.00;84841.78;5136084;27;20188;-75
2022/01/14 09:26:01;;;;;;;24.83;23.30;;;;;;;-141.02;100.00;84845.66;5136328;27;20189;-76
2022/01/14 09:28:29;;;;;;;25.90;24.50;;;;;;;-141.02;100.00;84849.56;5136210;27;20273;-75
2022/01/14 09:30:58;;;;;;;26.50;24.57;;;;;;;-141.02;100.00;84841.78;5135865;27;20192;-75
2022/01/14 09:33:25;;;;;;;25.20;23.90;;;;;;;-141.02;100.00;84845.66;5135880;27;20228;-76
2022/01/14 09:35:53;;;;;;;23.03;21.87;;;;;;;-141.02;100.00;84843.72;5135949;27;20193;-75
2022/01/14 09:38:22;;;;;;;25.93;24.57;;;;;;;-141.02;100.00;84839.84;5135709;27;20188;-76
2022/01/14 09:40:52;;;;;;;24.97;23.87;;;;;;;-141.02;100.00;84820.41;5135976;27;20271;-75
2022/01/14 09:43:19;;;;;;;26.50;25.33;;;;;;;-141.02;100.00;84865.09;5135956;27;20204;-75
2022/01/14 09:45:46;;;;;;;27.57;25.57;;;;;;;-141.02;100.00;84799.03;5135946;27;20227;-75
2022/01/14 09:48:16;;;;;;;24.53;23.43;;;;;;;-141.02;100.00;84830.13;5135859;27;20224;-75
2022/01/14 09:50:44;;;;;;;23.80;22.43;;;;;;;-141.02;100.00;84834.00;5135867;27;20201;-75
2022/01/14 09:53:13;;;;;;;23.23;22.17;;;;;;;-141.02;100.00;84818.47;5135438;27;20713;-74
2022/01/14 09:55:42;;;;;;;26.57;25.10;;;;;;;-141.02;100.00;84834.00;5135426;27;20196;-75
2022/01/14 09:58:10;;;;;;;25.63;24.23;;;;;;;-141.02;100.00;84845.66;5135382;27;20678;-74
2022/01/14 10:00:38;;;;;;;25.43;23.53;;;;;;;-141.02;100.00;84837.91;5135582;27;20192;-77
2022/01/14 10:03:20;;;;;;;25.43;23.80;;;;;;;-141.02;100.00;84581.34;5135309;27;20246;-76
2022/01/14 10:05:48;;;;;;;22.53;21.30;;;;;;;-141.02;100.00;84822.34;5135494;27;20207;-77
2022/01/14 10:08:20;;;;;;;23.00;21.90;;;;;;;-141.02;100.00;84810.69;5135510;27;20279;-76
2022/01/14 10:10:50;;;;;;;25.57;24.37;;;;;;;-141.02;100.00;84810.69;5135441;27;20216;-76
2022/01/14 10:13:19;;;;;;;23.23;21.67;;;;;;;-141.02;100.00;84855.38;5135054;27;20213;-76
2022/01/14 10:15:49;;;;;;;23.47;21.67;;;;;;;-141.02;100.00;84880.66;5134984;27;20284;-77
2022/01/14 10:18:18;;;;;;;21.37;20.07;;;;;;;-141.02;100.00;84604.69;5134807;27;20717;-75
2022/01/14 10:20:45;;;;;;;25.40;23.03;;;;;;;-141.02;100.00;84822.34;5135254;27;20196;-76
2022/01/14 10:23:13;;;;;;;23.90;22.67;;;;;;;-141.02;100.00;84841.78;5134920;27;20662;-76
2022/01/14 10:25:42;;;;;;;23.77;22.10;;;;;;;-141.02;100.00;84890.38;5135166;27;20196;-77
2022/01/14 10:28:21;;;;;;;25.27;23.90;;;;;;;-141.02;100.00;84878.72;5134807;27;20203;-76
2022/01/14 10:30:50;;;;;;;23.13;21.73;;;;;;;-141.02;100.00;84915.63;5134812;27;20279;-75
2022/01/14 10:33:24;;;;;;;25.13;23.47;;;;;;;-141.02;100.00;84884.53;5134937;27;20270;-77
2022/01/14 10:35:51;;;;;;;22.00;20.70;;;;;;;-141.02;100.00;84907.88;5135084;27;20211;-76
2022/01/14 10:38:20;;;;;;;25.43;23.53;;;;;;;-141.02;100.00;84915.63;5134586;27;20719;-77
2022/01/14 10:40:48;;;;;;;24.80;22.93;;;;;;;-141.02;100.00;84903.97;5134574;27;20192;-77
2022/01/14 10:43:17;;;;;;;29.10;27.13;;;;;;;-141.02;100.00;84460.88;5134861;27;20197;-75
2022/01/14 10:45:47;;;;;;;21.87;20.67;;;;;;;-141.02;100.00;84849.56;5134364;27;20197;-77
2022/01/14 10:48:16;;;;;;;26.67;25.00;;;;;;;-141.02;100.00;84894.25;5133485;27;20257;-78
2022/01/14 10:50:46;;;;;;;24.07;22.63;;;;;;;-141.02;100.00;84925.34;5134370;27;20188;-80
2022/01/14 10:53:15;;;;;;;22.20;21.00;;;;;;;-141.02;100.00;84938.97;5133110;27;20263;-77
2022/01/14 10:55:44;;;;;;;27.60;25.27;;;;;;;-141.02;100.00;84911.75;5134652;27;20251;-77
2022/01/14 10:58:15;;;;;;;25.80;24.37;;;;;;;-141.02;100.00;84892.31;5134606;27;20219;-77
2022/01/14 11:00:45;;;;;;;24.00;22.60;;;;;;;-141.02;100.00;84907.88;5134222;27;20184;-79
2022/01/14 11:03:14;;;;;;;26.80;25.03;;;;;;;-141.02;100.00;84905.91;5134311;27;20192;-80
2022/01/14 11:05:42;;;;;;;33.33;31.37;;;;;;;-141.02;100.00;84938.97;5133964;27;20196;-80
2022/01/14 11:08:09;;;;;;;24.97;23.47;;;;;;;-141.02;100.00;84907.88;5133968;27;20630;-80
2022/01/14 11:10:38;;;;;;;25.13;23.43;;;;;;;-141.02;100.00;84903.97;5133979;27;20586;-78